Time;durP1;ratioP1;P1;durP2;ratioP2;P2;SDS_P1;SDS_P2;PMS_P1;PMS_P2;Temp;Humidity;BMP_temperature;BMP_pressure;BME280_temperature;BME280_humidity;BME280_pressure;Samples;Min_cycle;Max_cycle;Signal;HPM_P1;HPM_P2
2021/06/17 00:01:47;;;;;;;1.65;1.42;;;;;;;;;;5108952;28;20031;-55
2021/06/17 00:04:12;;;;;;;1.83;1.73;;;;;;;;;;5094996;28;20032;-53
2021/06/17 00:06:38;;;;;;;3.53;2.25;;;;;;;;;;5104001;28;20028;-56
2021/06/17 00:09:04;;;;;;;2.57;1.97;;;;;;;;;;5092125;28;20055;-55
2021/06/17 00:11:29;;;;;;;2.50;1.88;;;;;;;;;;5112175;28;20373;-56
2021/06/17 00:13:54;;;;;;;4.05;1.98;;;;;;;;;;5092421;28;20038;-57
2021/06/17 00:16:20;;;;;;;3.63;1.95;;;;;;;;;;5091919;28;20056;-56
2021/06/17 00:18:45;;;;;;;3.80;2.17;;;;;;;;;;5105904;28;20015;-55
2021/06/17 00:21:10;;;;;;;2.35;1.70;;;;;;;;;;5093849;28;20352;-55
2021/06/17 00:23:36;;;;;;;4.25;1.85;;;;;;;;;;5103209;28;20026;-54
2021/06/17 00:26:02;;;;;;;2.67;2.05;;;;;;;;;;5111373;28;20076;-55
2021/06/17 00:28:27;;;;;;;4.25;1.90;;;;;;;;;;5111682;28;20024;-54
2021/06/17 00:30:53;;;;;;;2.50;2.30;;;;;;;;;;5110338;28;20046;-57
2021/06/17 00:33:19;;;;;;;2.47;2.08;;;;;;;;;;5088737;28;20043;-56
2021/06/17 00:35:44;;;;;;;2.47;2.28;;;;;;;;;;5091631;28;20539;-53
2021/06/17 00:38:09;;;;;;;4.07;2.08;;;;;;;;;;5106196;28;20027;-55
2021/06/17 00:40:35;;;;;;;2.97;1.92;;;;;;;;;;5101283;28;20020;-56
2021/06/17 00:43:00;;;;;;;3.53;2.42;;;;;;;;;;5088506;28;20100;-53
2021/06/17 00:45:33;;;;;;;3.50;2.00;;;;;;;;;;5091415;28;20020;-55
2021/06/17 00:47:58;;;;;;;3.35;2.10;;;;;;;;;;5095672;28;20022;-54
2021/06/17 00:50:27;;;;;;;5.03;2.30;;;;;;;;;;5093538;28;20106;-56
2021/06/17 00:52:52;;;;;;;4.50;2.17;;;;;;;;;;5088603;28;20465;-53
2021/06/17 00:55:18;;;;;;;2.92;2.20;;;;;;;;;;5104362;28;20023;-56
2021/06/17 00:57:43;;;;;;;3.92;2.15;;;;;;;;;;5111449;28;20055;-54
2021/06/17 01:00:10;;;;;;;6.22;2.22;;;;;;;;;;5110710;28;20051;-50
2021/06/17 01:02:35;;;;;;;2.70;2.33;;;;;;;;;;5098693;28;20031;-55
2021/06/17 01:05:00;;;;;;;3.42;2.03;;;;;;;;;;5105368;28;20098;-55
2021/06/17 01:07:36;;;;;;;2.53;2.20;;;;;;;;;;5111778;28;20058;-54
2021/06/17 01:10:05;;;;;;;4.05;2.35;;;;;;;;;;5105315;28;20309;-51
2021/06/17 01:12:37;;;;;;;3.03;2.25;;;;;;;;;;5092991;28;20266;-54
2021/06/17 01:15:05;;;;;;;3.05;2.10;;;;;;;;;;5100942;28;20019;-54
2021/06/17 01:17:33;;;;;;;2.33;2.13;;;;;;;;;;5111403;28;20069;-54
2021/06/17 01:20:13;;;;;;;2.45;2.22;;;;;;;;;;5097189;28;20030;-53
2021/06/17 01:22:52;;;;;;;2.75;2.40;;;;;;;;;;5092925;28;20507;-54
2021/06/17 01:25:17;;;;;;;3.65;2.30;;;;;;;;;;5107588;28;20068;-54
2021/06/17 01:27:52;;;;;;;3.00;2.37;;;;;;;;;;5113481;28;20024;-51
2021/06/17 01:30:18;;;;;;;2.20;1.98;;;;;;;;;;5113002;28;20273;-55
2021/06/17 01:32:46;;;;;;;3.47;2.05;;;;;;;;;;5091865;28;20027;-55
2021/06/17 01:35:12;;;;;;;2.97;2.08;;;;;;;;;;5113654;28;20026;-55
2021/06/17 01:37:38;;;;;;;3.97;2.40;;;;;;;;;;5094844;28;20032;-56
2021/06/17 01:40:06;;;;;;;3.05;2.33;;;;;;;;;;5098125;28;20024;-54
2021/06/17 01:42:31;;;;;;;3.15;2.53;;;;;;;;;;5097608;28;20050;-54
2021/06/17 01:44:57;;;;;;;4.88;2.65;;;;;;;;;;5109803;28;20513;-55
2021/06/17 01:47:24;;;;;;;2.72;2.13;;;;;;;;;;5100352;28;20024;-53
2021/06/17 01:49:50;;;;;;;2.58;2.38;;;;;;;;;;5100461;28;20016;-53
2021/06/17 01:52:16;;;;;;;5.05;3.00;;;;;;;;;;5097741;28;20020;-56
2021/06/17 01:54:42;;;;;;;3.40;2.45;;;;;;;;;;5114129;27;20094;-55
2021/06/17 01:57:09;;;;;;;3.53;2.53;;;;;;;;;;5098795;28;20011;-53
2021/06/17 01:59:34;;;;;;;3.58;2.55;;;;;;;;;;5100986;28;20410;-55
2021/06/17 02:02:00;;;;;;;3.20;2.42;;;;;;;;;;5098414;28;20041;-56
2021/06/17 02:04:27;;;;;;;4.07;2.25;;;;;;;;;;5100307;28;20015;-54
2021/06/17 02:06:52;;;;;;;3.75;2.67;;;;;;;;;;5105394;28;20540;-54
2021/06/17 02:09:18;;;;;;;2.47;2.28;;;;;;;;;;5098431;28;20030;-54
2021/06/17 02:11:43;;;;;;;3.38;2.40;;;;;;;;;;5113836;28;20028;-55
2021/06/17 02:14:09;;;;;;;3.65;2.88;;;;;;;;;;5099794;28;20375;-55
2021/06/17 02:16:34;;;;;;;2.80;2.40;;;;;;;;;;5105984;28;20390;-55
2021/06/17 02:19:01;;;;;;;3.03;2.60;;;;;;;;;;5095677;28;20016;-53
2021/06/17 02:21:28;;;;;;;3.92;2.47;;;;;;;;;;5095497;28;20020;-54
2021/06/17 02:23:55;;;;;;;3.58;3.05;;;;;;;;;;5092621;28;20027;-54
2021/06/17 02:26:21;;;;;;;3.05;2.85;;;;;;;;;;5114026;28;20047;-55
2021/06/17 02:28:47;;;;;;;3.25;2.72;;;;;;;;;;5112952;28;20511;-55
2021/06/17 02:31:13;;;;;;;4.25;2.85;;;;;;;;;;5113391;28;20327;-55
2021/06/17 02:33:39;;;;;;;4.55;2.70;;;;;;;;;;5110704;28;20022;-56
2021/06/17 02:36:05;;;;;;;5.45;3.20;;;;;;;;;;5098017;28;20119;-52
2021/06/17 02:38:32;;;;;;;3.00;2.80;;;;;;;;;;5102073;28;20053;-51
2021/06/17 02:41:00;;;;;;;3.50;2.88;;;;;;;;;;5093065;28;20024;-54
2021/06/17 02:43:28;;;;;;;4.72;3.20;;;;;;;;;;5090182;28;20024;-54
2021/06/17 02:45:54;;;;;;;4.05;3.65;;;;;;;;;;5100736;28;20020;-56
2021/06/17 02:48:19;;;;;;;6.35;3.30;;;;;;;;;;5113328;28;20019;-52
2021/06/17 02:50:44;;;;;;;5.00;3.30;;;;;;;;;;5112448;28;20084;-56
2021/06/17 02:53:10;;;;;;;3.45;3.15;;;;;;;;;;5109986;28;20035;-54
2021/06/17 02:55:35;;;;;;;3.95;3.42;;;;;;;;;;5106824;28;20024;-56
2021/06/17 02:58:19;;;;;;;4.28;2.95;;;;;;;;;;5106307;28;20018;-56
2021/06/17 03:01:07;;;;;;;3.95;3.00;;;;;;;;;;5096519;28;20036;-55
2021/06/17 03:03:41;;;;;;;4.30;3.85;;;;;;;;;;5093491;28;20098;-55
2021/06/17 03:06:19;;;;;;;6.37;3.53;;;;;;;;;;5092370;28;20056;-53
2021/06/17 03:09:04;;;;;;;3.95;3.17;;;;;;;;;;5107529;28;20497;-54
2021/06/17 03:11:34;;;;;;;5.97;4.38;;;;;;;;;;5094670;28;20032;-55
2021/06/17 03:14:02;;;;;;;6.72;4.88;;;;;;;;;;5088449;28;20427;-55
2021/06/17 03:16:28;;;;;;;6.43;5.00;;;;;;;;;;5099756;28;20428;-57
2021/06/17 03:18:55;;;;;;;8.45;5.63;;;;;;;;;;5097016;28;20594;-54
2021/06/17 03:21:20;;;;;;;8.35;5.60;;;;;;;;;;5100103;28;20019;-53
2021/06/17 03:23:48;;;;;;;8.65;5.32;;;;;;;;;;5108767;28;20497;-53
2021/06/17 03:26:14;;;;;;;7.72;5.25;;;;;;;;;;5092781;28;20060;-56
2021/06/17 03:28:40;;;;;;;7.55;4.47;;;;;;;;;;5104210;28;20016;-51
2021/06/17 03:31:09;;;;;;;7.47;5.10;;;;;;;;;;5109208;28;20131;-57
2021/06/17 03:33:37;;;;;;;7.07;4.97;;;;;;;;;;5093891;28;20039;-55
2021/06/17 03:36:05;;;;;;;4.15;3.72;;;;;;;;;;5102017;28;20037;-54
2021/06/17 03:38:31;;;;;;;5.90;4.60;;;;;;;;;;5104255;28;20011;-56
2021/06/17 03:40:57;;;;;;;3.40;2.55;;;;;;;;;;5097161;28;20101;-54
2021/06/17 03:43:23;;;;;;;4.70;2.95;;;;;;;;;;5105506;28;20023;-51
2021/06/17 03:45:49;;;;;;;3.50;3.17;;;;;;;;;;5108936;28;20077;-54
2021/06/17 03:48:15;;;;;;;5.07;3.20;;;;;;;;;;5093471;28;20035;-55
2021/06/17 03:50:43;;;;;;;3.63;3.08;;;;;;;;;;5110052;28;20030;-55
2021/06/17 03:53:09;;;;;;;4.00;2.70;;;;;;;;;;5096469;28;20423;-55
2021/06/17 03:55:35;;;;;;;4.70;2.80;;;;;;;;;;5111093;28;20055;-52
2021/06/17 03:58:00;;;;;;;6.03;3.40;;;;;;;;;;5103905;28;20018;-54
2021/06/17 04:00:26;;;;;;;4.63;3.13;;;;;;;;;;5106653;28;20052;-52
2021/06/17 04:02:55;;;;;;;3.50;3.10;;;;;;;;;;5089766;28;20430;-54
2021/06/17 04:05:21;;;;;;;6.18;3.20;;;;;;;;;;5101423;28;20016;-53
2021/06/17 04:07:47;;;;;;;7.68;2.95;;;;;;;;;;5093609;28;20061;-52
2021/06/17 04:10:14;;;;;;;3.78;2.80;;;;;;;;;;5091688;28;20028;-50
2021/06/17 04:12:39;;;;;;;4.72;2.70;;;;;;;;;;5099966;28;20036;-55
2021/06/17 04:15:05;;;;;;;3.95;2.58;;;;;;;;;;5111483;28;20020;-54
2021/06/17 04:17:44;;;;;;;4.82;3.03;;;;;;;;;;5103051;28;20370;-53
2021/06/17 04:20:11;;;;;;;6.93;2.75;;;;;;;;;;5102403;28;20012;-53
2021/06/17 04:22:41;;;;;;;3.67;2.80;;;;;;;;;;5097270;28;20019;-53
2021/06/17 04:25:08;;;;;;;5.03;3.05;;;;;;;;;;5111425;28;20028;-55
2021/06/17 04:27:34;;;;;;;8.40;3.03;;;;;;;;;;5098866;28;20110;-54
2021/06/17 04:29:59;;;;;;;5.63;2.90;;;;;;;;;;5104538;28;20030;-51
2021/06/17 04:32:25;;;;;;;3.53;2.63;;;;;;;;;;5102175;28;20020;-55
2021/06/17 04:34:51;;;;;;;8.40;3.03;;;;;;;;;;5105929;28;20056;-52
2021/06/17 04:37:18;;;;;;;4.97;3.08;;;;;;;;;;5107431;28;20107;-56
2021/06/17 04:39:44;;;;;;;5.28;3.75;;;;;;;;;;5091401;28;20133;-52
2021/06/17 04:42:10;;;;;;;4.93;2.95;;;;;;;;;;5093332;28;20011;-51
2021/06/17 04:44:39;;;;;;;4.47;2.45;;;;;;;;;;5100085;28;20024;-55
2021/06/17 04:47:06;;;;;;;5.53;3.13;;;;;;;;;;5102207;28;20019;-56
2021/06/17 04:49:32;;;;;;;4.82;3.40;;;;;;;;;;5111701;28;20073;-54
2021/06/17 04:51:58;;;;;;;3.97;2.40;;;;;;;;;;5110731;28;20027;-54
2021/06/17 04:54:23;;;;;;;3.65;2.80;;;;;;;;;;5105837;28;20398;-55
2021/06/17 04:56:48;;;;;;;3.45;2.92;;;;;;;;;;5107476;28;20055;-56
2021/06/17 04:59:16;;;;;;;4.50;2.70;;;;;;;;;;5114093;28;20333;-55
2021/06/17 05:01:42;;;;;;;5.43;3.00;;;;;;;;;;5101817;28;20450;-56
2021/06/17 05:04:08;;;;;;;8.07;4.15;;;;;;;;;;5111877;28;20073;-55
2021/06/17 05:06:37;;;;;;;4.32;2.30;;;;;;;;;;5108604;27;20016;-56
2021/06/17 05:12:00;;;;;;;3.42;2.45;;;;;;;;;;5044493;28;20041;-54
2021/06/17 05:14:26;;;;;;;3.23;2.73;;;;;;;;;;5037154;28;20025;-54
2021/06/17 05:16:51;;;;;;;4.15;2.70;;;;;;;;;;5043356;28;20771;-54
2021/06/17 05:19:16;;;;;;;5.35;3.00;;;;;;;;;;5045426;28;20041;-57
2021/06/17 05:21:42;;;;;;;5.28;3.00;;;;;;;;;;5049121;28;20111;-53
2021/06/17 05:24:07;;;;;;;6.18;2.80;;;;;;;;;;5045876;28;20021;-55
2021/06/17 05:26:33;;;;;;;3.60;2.40;;;;;;;;;;5048922;28;20573;-54
2021/06/17 05:28:59;;;;;;;3.25;2.70;;;;;;;;;;5049135;28;20033;-54
2021/06/17 05:31:26;;;;;;;4.88;2.25;;;;;;;;;;5050060;28;20028;-55
2021/06/17 05:33:51;;;;;;;4.28;3.03;;;;;;;;;;5038136;28;20029;-54
2021/06/17 05:36:16;;;;;;;4.78;2.53;;;;;;;;;;5050280;28;20021;-57
2021/06/17 05:38:42;;;;;;;5.72;2.65;;;;;;;;;;5048424;28;20098;-54
2021/06/17 05:41:07;;;;;;;4.40;2.85;;;;;;;;;;5043483;28;20412;-54
2021/06/17 05:43:32;;;;;;;5.88;2.63;;;;;;;;;;5039108;28;20480;-55
2021/06/17 05:45:58;;;;;;;3.43;2.70;;;;;;;;;;5046920;28;20179;-55
2021/06/17 05:48:23;;;;;;;5.55;2.50;;;;;;;;;;5095623;28;20763;-49
2021/06/17 05:50:48;;;;;;;6.65;3.03;;;;;;;;;;5111972;28;20008;-55
2021/06/17 05:53:14;;;;;;;5.53;2.45;;;;;;;;;;5105043;28;20090;-55
2021/06/17 05:55:39;;;;;;;7.40;2.70;;;;;;;;;;5102438;27;20023;-53
2021/06/17 05:58:05;;;;;;;6.60;2.50;;;;;;;;;;5100015;28;20020;-52
2021/06/17 06:00:30;;;;;;;3.80;2.20;;;;;;;;;;5097870;28;20051;-56
2021/06/17 06:02:55;;;;;;;2.95;2.53;;;;;;;;;;5101717;28;20103;-55
2021/06/17 06:05:21;;;;;;;3.47;2.57;;;;;;;;;;5105907;28;20027;-50
2021/06/17 06:07:46;;;;;;;4.30;2.42;;;;;;;;;;5112599;28;20399;-56
2021/06/17 06:10:14;;;;;;;5.05;2.35;;;;;;;;;;5105435;28;20031;-54
2021/06/17 06:12:39;;;;;;;3.70;2.80;;;;;;;;;;5101796;28;20511;-51
2021/06/17 06:15:05;;;;;;;7.90;2.67;;;;;;;;;;5106952;28;20148;-55
2021/06/17 06:17:30;;;;;;;3.70;3.30;;;;;;;;;;5104352;28;20042;-55
2021/06/17 06:19:55;;;;;;;4.40;2.42;;;;;;;;;;5099197;28;20537;-56
2021/06/17 06:22:20;;;;;;;10.85;3.28;;;;;;;;;;5100881;28;20422;-55
2021/06/17 06:24:46;;;;;;;5.47;2.42;;;;;;;;;;5104702;28;20368;-57
2021/06/17 06:27:13;;;;;;;7.07;2.83;;;;;;;;;;5103593;28;20052;-52
2021/06/17 06:29:38;;;;;;;90.55;16.48;;;;;;;;;;5111724;28;20030;-54
2021/06/17 06:32:04;;;;;;;5.82;2.50;;;;;;;;;;5111621;28;20039;-54
2021/06/17 06:34:29;;;;;;;2.92;2.28;;;;;;;;;;5106780;28;20055;-53
2021/06/17 06:36:54;;;;;;;4.18;2.20;;;;;;;;;;5094946;28;20463;-55
2021/06/17 06:39:20;;;;;;;5.18;2.67;;;;;;;;;;5094773;28;20467;-56
2021/06/17 06:41:45;;;;;;;4.18;2.20;;;;;;;;;;5101368;28;20024;-55
2021/06/17 06:44:10;;;;;;;6.03;2.67;;;;;;;;;;5100831;28;20024;-55
2021/06/17 06:46:37;;;;;;;5.38;3.05;;;;;;;;;;5113079;28;20141;-51
2021/06/17 06:49:02;;;;;;;3.80;2.50;;;;;;;;;;5107631;28;20016;-55
2021/06/17 06:51:28;;;;;;;2.90;2.33;;;;;;;;;;5109572;28;20386;-54
2021/06/17 06:53:53;;;;;;;4.53;2.42;;;;;;;;;;5109279;28;20123;-56
2021/06/17 06:56:18;;;;;;;6.70;2.50;;;;;;;;;;5106837;28;20428;-55
2021/06/17 06:58:43;;;;;;;2.70;2.50;;;;;;;;;;5093753;28;20636;-55
2021/06/17 07:01:09;;;;;;;3.73;2.37;;;;;;;;;;5102423;28;20756;-54
2021/06/17 07:03:34;;;;;;;2.58;2.22;;;;;;;;;;5103308;28;20285;-55
2021/06/17 07:06:00;;;;;;;4.35;1.88;;;;;;;;;;5112122;28;20015;-55
2021/06/17 07:08:25;;;;;;;9.20;2.03;;;;;;;;;;5107360;28;20219;-55
2021/06/17 07:10:50;;;;;;;3.70;2.27;;;;;;;;;;5099015;28;20417;-53
2021/06/17 07:13:16;;;;;;;2.97;2.17;;;;;;;;;;5108621;28;20675;-56
2021/06/17 07:15:42;;;;;;;5.78;3.00;;;;;;;;;;5093220;28;20520;-55
2021/06/17 07:18:07;;;;;;;4.35;2.35;;;;;;;;;;5104308;28;20458;-56
2021/06/17 07:20:32;;;;;;;3.50;2.38;;;;;;;;;;5101124;28;20031;-57
2021/06/17 07:22:58;;;;;;;5.57;2.40;;;;;;;;;;5089603;28;20028;-54
2021/06/17 07:25:24;;;;;;;3.10;2.40;;;;;;;;;;5108212;28;20113;-54
2021/06/17 07:27:49;;;;;;;4.07;2.30;;;;;;;;;;5112614;28;20071;-55
2021/06/17 07:30:15;;;;;;;4.35;2.22;;;;;;;;;;5100995;28;20023;-56
2021/06/17 07:32:40;;;;;;;4.32;2.08;;;;;;;;;;5093572;28;20575;-52
2021/06/17 07:35:06;;;;;;;2.83;1.88;;;;;;;;;;5107801;28;20065;-56
2021/06/17 07:37:31;;;;;;;4.25;1.77;;;;;;;;;;5107970;28;20015;-54
2021/06/17 07:39:56;;;;;;;6.97;2.28;;;;;;;;;;5101019;28;20425;-54
2021/06/17 07:42:22;;;;;;;3.27;1.80;;;;;;;;;;5089034;28;20016;-55
2021/06/17 07:44:49;;;;;;;4.93;2.00;;;;;;;;;;5092257;28;20269;-54
2021/06/17 07:47:14;;;;;;;3.65;1.80;;;;;;;;;;5092436;28;20031;-55
2021/06/17 07:49:40;;;;;;;4.97;2.17;;;;;;;;;;5099305;28;20028;-54
2021/06/17 07:52:05;;;;;;;3.17;1.88;;;;;;;;;;5109107;28;20278;-54
2021/06/17 07:54:30;;;;;;;3.72;1.73;;;;;;;;;;5110743;28;20020;-55
2021/06/17 07:56:57;;;;;;;3.72;2.00;;;;;;;;;;5101223;28;20052;-56
2021/06/17 07:59:22;;;;;;;7.53;2.08;;;;;;;;;;5106224;28;20011;-56
2021/06/17 08:01:50;;;;;;;6.53;2.25;;;;;;;;;;5098411;28;20489;-54
2021/06/17 08:04:15;;;;;;;2.13;1.48;;;;;;;;;;5088844;28;20491;-54
2021/06/17 08:06:40;;;;;;;1.50;1.37;;;;;;;;;;5099794;28;20104;-52
2021/06/17 08:09:05;;;;;;;3.30;1.70;;;;;;;;;;5111444;28;20349;-57
2021/06/17 08:11:31;;;;;;;4.60;1.47;;;;;;;;;;5112058;28;20383;-56
2021/06/17 08:13:56;;;;;;;3.42;1.58;;;;;;;;;;5108927;28;20732;-53
2021/06/17 08:16:21;;;;;;;5.07;1.52;;;;;;;;;;5106559;28;20097;-56
2021/06/17 08:18:47;;;;;;;3.00;1.70;;;;;;;;;;5091441;28;20012;-56
2021/06/17 08:21:12;;;;;;;6.75;2.03;;;;;;;;;;5102468;28;20034;-55
2021/06/17 08:23:37;;;;;;;5.80;1.80;;;;;;;;;;5091344;28;20028;-55
2021/06/17 08:26:02;;;;;;;4.73;1.67;;;;;;;;;;5095344;28;20016;-54
2021/06/17 08:28:29;;;;;;;5.20;1.60;;;;;;;;;;5106105;28;20687;-52
2021/06/17 08:30:55;;;;;;;5.20;2.00;;;;;;;;;;5100300;28;20085;-56
2021/06/17 08:33:20;;;;;;;4.10;1.60;;;;;;;;;;5113043;28;20466;-57
2021/06/17 08:35:48;;;;;;;3.58;1.60;;;;;;;;;;5113758;28;20134;-56
2021/06/17 08:38:13;;;;;;;2.88;1.42;;;;;;;;;;5112051;28;20012;-55
2021/06/17 08:40:40;;;;;;;5.17;1.63;;;;;;;;;;5102804;28;20422;-54
2021/06/17 08:43:05;;;;;;;4.85;1.63;;;;;;;;;;5092299;28;20280;-56
2021/06/17 08:45:31;;;;;;;3.55;1.80;;;;;;;;;;5095257;28;20385;-57
2021/06/17 08:47:56;;;;;;;3.13;1.27;;;;;;;;;;5114102;28;20019;-56
2021/06/17 08:50:21;;;;;;;3.67;1.50;;;;;;;;;;5094341;28;20027;-56
2021/06/17 08:52:47;;;;;;;3.13;1.35;;;;;;;;;;5092087;28;20012;-57
2021/06/17 08:55:19;;;;;;;2.47;1.50;;;;;;;;;;5100285;28;20139;-56
2021/06/17 08:57:47;;;;;;;3.85;1.27;;;;;;;;;;5107769;28;20018;-57
2021/06/17 09:00:15;;;;;;;3.58;1.48;;;;;;;;;;5113560;28;20051;-57
2021/06/17 09:02:40;;;;;;;4.30;1.50;;;;;;;;;;5099813;28;20371;-57
2021/06/17 09:05:15;;;;;;;3.85;1.48;;;;;;;;;;5094000;28;20064;-56
2021/06/17 09:07:40;;;;;;;;;;;;;;;;;;5114238;28;20024;-56
2021/06/17 09:10:07;;;;;;;2.88;1.27;;;;;;;;;;5094218;28;19916;-57
2021/06/17 09:12:41;;;;;;;3.30;0.98;;;;;;;;;;5091411;28;20314;-56
2021/06/17 09:15:07;;;;;;;6.60;1.35;;;;;;;;;;5104967;28;20034;-55
2021/06/17 09:17:32;;;;;;;1.10;0.98;;;;;;;;;;5097924;28;20483;-54
2021/06/17 09:19:57;;;;;;;3.43;0.97;;;;;;;;;;5114243;28;20015;-55
2021/06/17 09:22:25;;;;;;;5.75;1.30;;;;;;;;;;5106775;28;20266;-54
2021/06/17 09:24:51;;;;;;;3.63;1.17;;;;;;;;;;5094551;28;20102;-55
2021/06/17 09:27:22;;;;;;;2.35;1.58;;;;;;;;;;5094283;28;20774;-55
2021/06/17 09:29:51;;;;;;;1.95;1.27;;;;;;;;;;5098445;28;20062;-56
2021/06/17 09:32:17;;;;;;;4.85;1.60;;;;;;;;;;5110997;28;20051;-55
2021/06/17 09:34:43;;;;;;;2.45;1.05;;;;;;;;;;5113624;27;20022;-54
2021/06/17 09:37:25;;;;;;;3.83;1.10;;;;;;;;;;5114242;28;20012;-53
2021/06/17 09:39:50;;;;;;;5.40;1.20;;;;;;;;;;5099849;28;20262;-53
2021/06/17 09:42:15;;;;;;;3.23;1.00;;;;;;;;;;5110848;28;20448;-55
2021/06/17 09:44:41;;;;;;;1.23;1.00;;;;;;;;;;5114492;28;20484;-56
2021/06/17 09:47:22;;;;;;;3.00;1.00;;;;;;;;;;5112900;28;20095;-54
2021/06/17 09:49:47;;;;;;;2.13;1.23;;;;;;;;;;5112652;28;20019;-56
2021/06/17 09:52:13;;;;;;;4.43;1.30;;;;;;;;;;5111607;28;20014;-53
2021/06/17 09:54:40;;;;;;;3.20;1.00;;;;;;;;;;5112264;28;20103;-56
2021/06/17 09:57:06;;;;;;;3.63;1.30;;;;;;;;;;5102394;28;20137;-55
2021/06/17 09:59:39;;;;;;;4.15;1.10;;;;;;;;;;5111803;28;20399;-54
2021/06/17 10:02:06;;;;;;;3.85;1.27;;;;;;;;;;5111488;28;20030;-53
2021/06/17 10:04:31;;;;;;;5.13;1.50;;;;;;;;;;5111274;28;20055;-55
2021/06/17 10:06:57;;;;;;;4.63;1.15;;;;;;;;;;5111861;28;20047;-55
2021/06/17 10:09:23;;;;;;;2.65;1.10;;;;;;;;;;5113353;28;20031;-55
2021/06/17 10:11:48;;;;;;;6.22;1.23;;;;;;;;;;5096358;28;20024;-57
2021/06/17 10:14:13;;;;;;;1.98;1.00;;;;;;;;;;5104237;28;20024;-52
2021/06/17 10:16:42;;;;;;;2.35;0.90;;;;;;;;;;5107467;28;20027;-52
2021/06/17 10:19:07;;;;;;;5.20;1.30;;;;;;;;;;5104407;28;20023;-55
2021/06/17 10:21:33;;;;;;;2.63;1.05;;;;;;;;;;5111304;28;20024;-52
2021/06/17 10:23:59;;;;;;;6.88;1.08;;;;;;;;;;5106208;28;20383;-54
2021/06/17 10:26:26;;;;;;;4.10;1.00;;;;;;;;;;5092957;28;20112;-54
2021/06/17 10:28:55;;;;;;;4.60;1.00;;;;;;;;;;5111495;28;20032;-55
2021/06/17 10:31:35;;;;;;;2.85;0.73;;;;;;;;;;5113900;28;20020;-55
2021/06/17 10:34:19;;;;;;;1.80;1.20;;;;;;;;;;5101968;28;20042;-56
2021/06/17 10:37:04;;;;;;;3.08;1.10;;;;;;;;;;5096779;28;20518;-54
2021/06/17 10:39:31;;;;;;;;;;;;;;;;;;5095413;28;20039;-56
2021/06/17 10:41:58;;;;;;;2.47;1.27;;;;;;;;;;5112078;28;19908;-55
2021/06/17 10:44:41;;;;;;;2.00;1.20;;;;;;;;;;5110613;28;20024;-56
2021/06/17 10:47:06;;;;;;;1.75;1.17;;;;;;;;;;5113586;28;20406;-55
2021/06/17 10:49:52;;;;;;;2.30;1.13;;;;;;;;;;5112713;28;20020;-55
2021/06/17 10:52:27;;;;;;;3.22;1.08;;;;;;;;;;5086764;28;20995;-56
2021/06/17 10:54:59;;;;;;;1.85;0.90;;;;;;;;;;5112461;28;20072;-55
2021/06/17 10:57:47;;;;;;;7.20;1.83;;;;;;;;;;5113173;28;20482;-57
2021/06/17 11:00:22;;;;;;;3.05;0.98;;;;;;;;;;5093015;28;20487;-57
2021/06/17 11:02:47;;;;;;;4.05;1.20;;;;;;;;;;5099855;28;20082;-55
2021/06/17 11:05:31;;;;;;;1.63;0.90;;;;;;;;;;5092460;28;20062;-57
2021/06/17 11:08:16;;;;;;;1.20;1.10;;;;;;;;;;5092421;28;20024;-57
2021/06/17 11:10:49;;;;;;;2.45;1.23;;;;;;;;;;5094847;28;20751;-57
2021/06/17 11:13:37;;;;;;;2.83;1.30;;;;;;;;;;5102803;28;20024;-55
2021/06/17 11:16:06;;;;;;;5.68;1.52;;;;;;;;;;5084050;28;20028;-55
2021/06/17 11:18:55;;;;;;;3.35;1.25;;;;;;;;;;5092261;28;20107;-55
2021/06/17 11:21:23;;;;;;;2.88;1.10;;;;;;;;;;5097118;28;20020;-56
2021/06/17 11:24:07;;;;;;;2.65;1.00;;;;;;;;;;5092804;28;20382;-53
2021/06/17 11:26:44;;;;;;;4.40;1.13;;;;;;;;;;5092276;28;20027;-55
2021/06/17 11:29:18;;;;;;;6.15;1.35;;;;;;;;;;5091934;28;20020;-55
2021/06/17 11:31:45;;;;;;;2.72;1.30;;;;;;;;;;5092102;28;20024;-55
2021/06/17 11:34:11;;;;;;;4.72;1.30;;;;;;;;;;5090246;28;20024;-57
2021/06/17 11:36:52;;;;;;;3.90;1.58;;;;;;;;;;5092390;28;20012;-56
2021/06/17 11:39:25;;;;;;;1.38;1.27;;;;;;;;;;5093204;28;20472;-57
2021/06/17 11:41:51;;;;;;;3.10;1.20;;;;;;;;;;5110667;28;20416;-54
2021/06/17 11:44:23;;;;;;;6.88;1.38;;;;;;;;;;5089461;28;20032;-54
2021/06/17 11:46:51;;;;;;;1.98;1.20;;;;;;;;;;5091944;28;20412;-56
2021/06/17 11:49:16;;;;;;;7.70;1.60;;;;;;;;;;5111781;28;20715;-53
2021/06/17 11:51:45;;;;;;;3.90;1.30;;;;;;;;;;5111870;28;20023;-56
2021/06/17 11:54:11;;;;;;;3.08;1.38;;;;;;;;;;5101326;28;20011;-54
2021/06/17 11:56:36;;;;;;;5.50;1.20;;;;;;;;;;5111653;28;20089;-57
2021/06/17 11:59:15;;;;;;;1.73;1.27;;;;;;;;;;5111607;28;20135;-56
2021/06/17 12:02:00;;;;;;;1.83;0.90;;;;;;;;;;5110575;28;20042;-55
2021/06/17 12:04:37;;;;;;;3.58;0.90;;;;;;;;;;5109949;28;20020;-54
2021/06/17 12:07:03;;;;;;;6.15;2.33;;;;;;;;;;5111135;28;20382;-55
2021/06/17 12:09:28;;;;;;;3.67;1.13;;;;;;;;;;5111604;28;20011;-56
2021/06/17 12:12:10;;;;;;;5.87;1.10;;;;;;;;;;5110629;28;20046;-56
2021/06/17 12:14:42;;;;;;;5.28;1.45;;;;;;;;;;5110858;28;20031;-53
2021/06/17 12:17:08;;;;;;;9.55;1.65;;;;;;;;;;5112018;28;20031;-56
2021/06/17 12:19:33;;;;;;;1.30;1.00;;;;;;;;;;5111084;28;20023;-56
2021/06/17 12:22:05;;;;;;;4.07;0.87;;;;;;;;;;5094090;28;20302;-56
2021/06/17 12:24:31;;;;;;;2.03;1.10;;;;;;;;;;5100802;28;20024;-55
2021/06/17 12:26:56;;;;;;;2.15;1.20;;;;;;;;;;5094394;28;20031;-57
2021/06/17 12:29:24;;;;;;;3.47;1.00;;;;;;;;;;5110129;28;20017;-55
2021/06/17 12:31:53;;;;;;;2.40;1.33;;;;;;;;;;5103651;28;20282;-54
2021/06/17 12:34:19;;;;;;;1.98;1.27;;;;;;;;;;5108834;28;20023;-56
2021/06/17 12:36:56;;;;;;;4.03;1.23;;;;;;;;;;5112064;28;20019;-53
2021/06/17 12:39:22;;;;;;;2.10;1.00;;;;;;;;;;5111558;28;20095;-55
2021/06/17 12:41:48;;;;;;;7.23;1.33;;;;;;;;;;5104858;28;20102;-57
2021/06/17 12:44:29;;;;;;;2.55;1.10;;;;;;;;;;5106591;28;20027;-54
2021/06/17 12:46:55;;;;;;;3.03;1.20;;;;;;;;;;5111593;28;20685;-55
2021/06/17 12:52:07;;;;;;;1.55;1.00;;;;;;;;;;5109327;28;20462;-56
2021/06/17 12:54:32;;;;;;;5.10;1.40;;;;;;;;;;5109549;28;20102;-53
2021/06/17 12:57:01;;;;;;;1.80;0.98;;;;;;;;;;5111718;28;20086;-56
2021/06/17 12:59:32;;;;;;;2.45;1.17;;;;;;;;;;5100086;28;20026;-55
2021/06/17 13:01:57;;;;;;;1.27;1.08;;;;;;;;;;5106061;28;20047;-54
2021/06/17 13:04:22;;;;;;;4.70;1.07;;;;;;;;;;5105094;28;20362;-56
2021/06/17 13:06:47;;;;;;;3.13;1.03;;;;;;;;;;5091396;28;20009;-55
2021/06/17 13:09:19;;;;;;;5.43;1.40;;;;;;;;;;5091434;28;20039;-54
2021/06/17 13:11:44;;;;;;;1.92;1.10;;;;;;;;;;5094500;28;20020;-54
2021/06/17 13:14:09;;;;;;;1.87;1.23;;;;;;;;;;5097851;28;20141;-54
2021/06/17 13:16:35;;;;;;;1.90;1.00;;;;;;;;;;5100876;28;20475;-55
2021/06/17 13:19:08;;;;;;;1.52;1.00;;;;;;;;;;5096265;28;20023;-56
2021/06/17 13:21:33;;;;;;;1.65;0.88;;;;;;;;;;5114960;28;20264;-56
2021/06/17 13:23:58;;;;;;;2.40;1.03;;;;;;;;;;5111093;28;20020;-55
2021/06/17 13:26:24;;;;;;;1.47;0.80;;;;;;;;;;5094880;28;20024;-52
2021/06/17 13:28:57;;;;;;;2.30;1.05;;;;;;;;;;5106946;28;20028;-53
2021/06/17 13:31:25;;;;;;;2.33;0.90;;;;;;;;;;5094624;28;20016;-56
2021/06/17 13:33:53;;;;;;;7.72;1.00;;;;;;;;;;5094284;28;21180;-55
2021/06/17 13:36:18;;;;;;;2.10;1.10;;;;;;;;;;5111269;27;20512;-56
2021/06/17 13:38:43;;;;;;;1.77;1.43;;;;;;;;;;5098200;28;20019;-54
2021/06/17 13:41:09;;;;;;;1.83;0.90;;;;;;;;;;5097623;28;20262;-56
2021/06/17 13:43:34;;;;;;;1.60;1.00;;;;;;;;;;5094122;28;20646;-57
2021/06/17 13:45:59;;;;;;;2.53;0.90;;;;;;;;;;5094541;28;20366;-56
2021/06/17 13:48:24;;;;;;;1.87;0.97;;;;;;;;;;5094490;28;20032;-56
2021/06/17 13:50:50;;;;;;;2.40;1.07;;;;;;;;;;5098771;28;20708;-55
2021/06/17 13:53:15;;;;;;;2.85;0.80;;;;;;;;;;5108805;28;20016;-56
2021/06/17 13:55:42;;;;;;;2.42;1.13;;;;;;;;;;5112090;28;20273;-55
2021/06/17 13:58:08;;;;;;;2.58;1.05;;;;;;;;;;5099134;28;20016;-55
2021/06/17 14:00:35;;;;;;;2.47;0.90;;;;;;;;;;5109909;28;20544;-54
2021/06/17 14:03:00;;;;;;;1.73;0.82;;;;;;;;;;5091336;28;20013;-56
2021/06/17 14:05:26;;;;;;;2.45;1.10;;;;;;;;;;5093725;28;20381;-56
2021/06/17 14:07:51;;;;;;;1.85;1.00;;;;;;;;;;5097783;28;20053;-51
2021/06/17 14:10:17;;;;;;;3.20;1.00;;;;;;;;;;5113112;28;20073;-55
2021/06/17 14:12:42;;;;;;;2.20;0.90;;;;;;;;;;5109035;28;20338;-56
2021/06/17 14:15:10;;;;;;;2.40;1.00;;;;;;;;;;5093749;28;20016;-56
2021/06/17 14:17:35;;;;;;;1.08;1.00;;;;;;;;;;5108408;28;20147;-56
2021/06/17 14:20:00;;;;;;;1.97;1.10;;;;;;;;;;5112831;28;20114;-55
2021/06/17 14:22:26;;;;;;;1.57;1.47;;;;;;;;;;5110755;28;20320;-54
2021/06/17 14:24:52;;;;;;;3.03;1.20;;;;;;;;;;5113305;28;20020;-55
2021/06/17 14:27:17;;;;;;;1.23;1.13;;;;;;;;;;5113492;28;20034;-56
2021/06/17 14:29:42;;;;;;;2.23;1.20;;;;;;;;;;5109932;28;20015;-55
2021/06/17 14:32:07;;;;;;;2.47;1.20;;;;;;;;;;5091773;28;20020;-56
2021/06/17 14:34:33;;;;;;;1.17;1.05;;;;;;;;;;5108838;28;20020;-57
2021/06/17 14:36:58;;;;;;;2.17;1.10;;;;;;;;;;5106867;28;20020;-57
2021/06/17 14:39:24;;;;;;;1.47;1.13;;;;;;;;;;5095331;28;20016;-57
2021/06/17 14:41:49;;;;;;;1.40;1.30;;;;;;;;;;5107861;28;20344;-57
2021/06/17 14:44:17;;;;;;;3.07;1.43;;;;;;;;;;5090387;28;20077;-56
2021/06/17 14:46:43;;;;;;;1.85;1.23;;;;;;;;;;5097954;28;20102;-57
2021/06/17 14:49:08;;;;;;;2.38;1.50;;;;;;;;;;5093185;28;20105;-55
2021/06/17 14:51:34;;;;;;;2.83;1.20;;;;;;;;;;5097469;28;20089;-58